Terminal Aerodrome Forecast
Issued by NWS Denver/Boulder, CO

Home | Current Version | Previous Version | Text Only | Print | Product List | Glossary On
Versions: 1 2 3 4 5 6 7 8 9 10 11 12 13 14 15 16 17 18 19 20 21 22 23 24 25 26 27 28 29 30 31 32 33 34 35 36 37 38 39 40 41 42
000
FTUS45 KBOU 201501 AAB
TAFDEN
TAF AMD
KDEN 201501Z 2015/2118 23012KT P6SM FEW140 BKN220
     FM201900 26014G24KT P6SM FEW130 BKN220
     FM202200 31014KT P6SM FEW080 SCT130 BKN220
     FM210300 28012KT P6SM FEW080 SCT130 BKN220
     FM210500 25012KT P6SM BKN220
     FM210700 20012KT P6SM SCT120 BKN220
     FM211100 14006KT P6SM SCT070 BKN110=

USA.gov is the U.S. government's official web portal to all federal, state and local government web resources and services.